createdAt,value
2022-11-29T00:01:58.580Z,85738.80
2022-11-29T00:04:27.832Z,85745.00
2022-11-29T00:06:56.844Z,85756.80
2022-11-29T00:09:26.365Z,85760.40
2022-11-29T00:12:13.892Z,85754.80
2022-11-29T00:14:43.808Z,85757.20
2022-11-29T00:17:13.302Z,85763.00
2022-11-29T00:19:42.732Z,85763.80
2022-11-29T00:22:11.875Z,85761.20
2022-11-29T00:24:41.386Z,85761.80
2022-11-29T00:27:10.792Z,85763.60
2022-11-29T00:29:39.765Z,85768.00
2022-11-29T00:32:08.965Z,85767.60
2022-11-29T00:34:39.002Z,85776.20
2022-11-29T00:37:08.131Z,85773.00
2022-11-29T00:39:37.603Z,85771.40
2022-11-29T00:42:06.736Z,85774.00
2022-11-29T00:44:35.899Z,85770.40
2022-11-29T00:47:05.453Z,85767.80
2022-11-29T00:49:34.549Z,85776.80
2022-11-29T00:52:03.588Z,85774.80
2022-11-29T00:54:32.886Z,85776.60
2022-11-29T00:57:02.090Z,85777.20
2022-11-29T00:59:31.555Z,85776.40
2022-11-29T01:02:00.653Z,85771.20
2022-11-29T01:04:29.597Z,85773.80
2022-11-29T01:06:58.551Z,85779.60
2022-11-29T01:09:27.617Z,85777.80
2022-11-29T01:11:56.715Z,85779.80
2022-11-29T01:14:26.074Z,85776.80
2022-11-29T01:16:55.364Z,85786.60
2022-11-29T01:19:24.425Z,85791.40
2022-11-29T01:21:53.486Z,85798.40
2022-11-29T01:24:23.638Z,85796.40
2022-11-29T01:26:52.886Z,85800.60
2022-11-29T01:29:21.756Z,85798.80
2022-11-29T01:31:50.783Z,85803.60
2022-11-29T01:34:19.916Z,85807.80
2022-11-29T01:36:49.110Z,85812.20
2022-11-29T01:39:18.275Z,85813.60
2022-11-29T01:41:47.458Z,85810.00
2022-11-29T01:44:16.533Z,85819.80
2022-11-29T01:46:48.854Z,85817.60
2022-11-29T01:49:40.477Z,85827.80
2022-11-29T01:52:33.420Z,85821.40
2022-11-29T01:55:08.127Z,85816.20
2022-11-29T01:57:41.730Z,85820.00
2022-11-29T02:00:19.399Z,85815.20
2022-11-29T02:03:05.206Z,85819.60
2022-11-29T02:05:35.152Z,85820.40
2022-11-29T02:08:05.008Z,85822.60
2022-11-29T02:10:51.554Z,85829.60
2022-11-29T02:13:49.465Z,85828.20
2022-11-29T02:16:31.022Z,85831.80
2022-11-29T02:19:28.418Z,85830.80
2022-11-29T02:22:34.576Z,85831.00
2022-11-29T02:25:18.422Z,85830.60
2022-11-29T02:28:35.265Z,85834.60
2022-11-29T02:31:24.941Z,85834.60
2022-11-29T02:34:31.107Z,85840.40
2022-11-29T02:37:36.292Z,85836.40
2022-11-29T02:40:38.675Z,85843.60
2022-11-29T02:43:46.407Z,85842.20
2022-11-29T02:46:48.352Z,85848.80
2022-11-29T02:50:00.358Z,85847.80
2022-11-29T02:52:54.403Z,85854.20
2022-11-29T02:55:42.913Z,85849.60
2022-11-29T02:58:28.424Z,85856.80
2022-11-29T03:02:06.269Z,85859.60
2022-11-29T03:05:03.136Z,85862.40
2022-11-29T03:08:04.654Z,85861.00
2022-11-29T03:11:29.276Z,85855.40
2022-11-29T03:14:16.706Z,85862.40
2022-11-29T03:17:19.508Z,85868.20
2022-11-29T03:20:25.131Z,85870.40
2022-11-29T03:23:51.212Z,85870.20
2022-11-29T03:26:46.559Z,85865.20
2022-11-29T03:29:34.361Z,85870.80
2022-11-29T03:32:36.490Z,85868.00
2022-11-29T03:35:34.449Z,85871.60
2022-11-29T03:38:28.097Z,85872.00
2022-11-29T03:41:21.438Z,85869.20
2022-11-29T03:44:14.586Z,85880.80
2022-11-29T03:47:25.418Z,85883.20
2022-11-29T03:50:06.720Z,85890.00
2022-11-29T03:52:57.515Z,85887.80
2022-11-29T03:56:00.185Z,85888.80
2022-11-29T03:58:51.932Z,85888.60
2022-11-29T04:01:36.937Z,85898.60
2022-11-29T04:04:21.967Z,85901.20
2022-11-29T04:07:14.854Z,85904.40
2022-11-29T04:10:05.413Z,85903.60
2022-11-29T04:13:10.564Z,85905.40
2022-11-29T04:16:16.363Z,85916.00
2022-11-29T04:19:08.521Z,85913.60
2022-11-29T04:22:20.996Z,85923.00
2022-11-29T04:25:09.040Z,85915.00
2022-11-29T04:27:50.597Z,85919.20
2022-11-29T04:30:29.426Z,85925.00
2022-11-29T04:33:45.926Z,85926.80
2022-11-29T04:36:39.924Z,85923.60
2022-11-29T04:39:29.472Z,85929.60
2022-11-29T04:42:22.165Z,85930.20
2022-11-29T04:45:06.439Z,85935.80
2022-11-29T04:48:34.126Z,85936.20
2022-11-29T04:51:31.277Z,85930.60
2022-11-29T04:54:24.452Z,85933.60
2022-11-29T04:57:14.336Z,85938.60
2022-11-29T05:00:07.548Z,85940.40
2022-11-29T05:02:49.780Z,85941.40
2022-11-29T05:05:45.229Z,85929.00
2022-11-29T05:08:40.228Z,85942.60
2022-11-29T05:11:44.869Z,85940.80
2022-11-29T05:15:06.759Z,85940.20
2022-11-29T05:18:30.938Z,85951.00
2022-11-29T05:21:20.787Z,85953.00
2022-11-29T05:24:00.999Z,85951.40
2022-11-29T05:27:18.407Z,85947.60
2022-11-29T05:30:12.437Z,85951.60
2022-11-29T05:32:56.567Z,85949.80
2022-11-29T05:35:52.431Z,85953.00
2022-11-29T05:39:07.079Z,85952.40
2022-11-29T05:41:53.810Z,85954.40
2022-11-29T05:44:40.625Z,85959.80
2022-11-29T05:47:16.270Z,85954.40
2022-11-29T05:50:06.959Z,85956.40
2022-11-29T05:52:50.458Z,85957.60
2022-11-29T05:55:47.309Z,85952.00
2022-11-29T05:58:30.528Z,85964.40
2022-11-29T06:01:23.264Z,85972.20
2022-11-29T06:04:15.319Z,85970.00
2022-11-29T06:07:08.425Z,85970.20
2022-11-29T06:12:38.614Z,85975.80
2022-11-29T06:15:59.268Z,85980.20
2022-11-29T06:18:43.316Z,85976.40
2022-11-29T06:21:37.857Z,85978.00
2022-11-29T06:24:51.838Z,85981.60
2022-11-29T06:27:38.786Z,85987.40
2022-11-29T06:30:17.513Z,85984.40
2022-11-29T06:33:18.285Z,85985.00
2022-11-29T06:36:30.283Z,85988.80
2022-11-29T06:38:59.783Z,85994.40
2022-11-29T06:41:29.576Z,85990.80
2022-11-29T06:43:59.167Z,85991.00
2022-11-29T06:46:31.954Z,85989.80
2022-11-29T06:49:28.409Z,85993.20
2022-11-29T06:52:24.416Z,85992.60
2022-11-29T06:55:49.840Z,85993.40
2022-11-29T06:58:36.179Z,85987.20
2022-11-29T07:01:45.509Z,85989.80
2022-11-29T07:04:40.046Z,85994.40
2022-11-29T07:07:27.956Z,86001.80
2022-11-29T07:10:00.718Z,85996.60
2022-11-29T07:12:30.373Z,85995.80
2022-11-29T07:15:00.131Z,85999.80
2022-11-29T07:17:59.841Z,85998.40
2022-11-29T07:21:24.190Z,85999.00
2022-11-29T07:24:20.645Z,85999.60
2022-11-29T07:27:29.217Z,85997.00
2022-11-29T07:30:22.193Z,85994.40
2022-11-29T07:33:46.003Z,85996.20
2022-11-29T07:37:02.712Z,85998.20
2022-11-29T07:40:14.919Z,86001.20
2022-11-29T07:43:11.262Z,86005.00
2022-11-29T07:45:42.137Z,85999.00
2022-11-29T07:48:15.066Z,85995.20
2022-11-29T07:50:47.084Z,85999.40
2022-11-29T07:53:23.043Z,86003.80
2022-11-29T07:55:52.728Z,86012.60
2022-11-29T07:58:22.325Z,86004.40
2022-11-29T08:00:51.468Z,86008.20
2022-11-29T08:03:20.621Z,86007.40
2022-11-29T08:05:49.922Z,86004.40
2022-11-29T08:08:19.940Z,86010.00
2022-11-29T08:10:49.456Z,86011.40
2022-11-29T08:13:22.536Z,86007.00
2022-11-29T08:15:52.126Z,86010.20
2022-11-29T08:18:21.342Z,86006.00
2022-11-29T08:20:50.533Z,86009.80
2022-11-29T08:23:19.484Z,86020.20
2022-11-29T08:25:49.527Z,86015.80
2022-11-29T08:28:19.096Z,86018.20
2022-11-29T08:30:48.160Z,86022.20
2022-11-29T08:33:17.292Z,86026.80
2022-11-29T08:35:46.737Z,86028.00
2022-11-29T08:38:15.938Z,86021.00
2022-11-29T08:40:44.980Z,86024.60
2022-11-29T08:43:14.817Z,86025.60
2022-11-29T08:45:43.893Z,86029.40
2022-11-29T08:48:15.696Z,86026.00
2022-11-29T08:50:44.882Z,86031.20
2022-11-29T08:53:32.622Z,86028.80
2022-11-29T08:56:12.024Z,86030.00
2022-11-29T08:58:51.898Z,86036.80
2022-11-29T09:01:21.919Z,86035.20
2022-11-29T09:04:08.732Z,86028.80
2022-11-29T09:06:46.699Z,86033.60
2022-11-29T09:09:15.847Z,86035.40
2022-11-29T09:11:49.224Z,86035.60
2022-11-29T09:14:19.630Z,86033.60
2022-11-29T09:16:48.686Z,86040.80
2022-11-29T09:19:18.513Z,86047.80
2022-11-29T09:21:47.604Z,86042.60
2022-11-29T09:24:17.284Z,86045.60
2022-11-29T09:26:49.365Z,86048.00
2022-11-29T09:29:19.785Z,86053.00
2022-11-29T09:31:49.085Z,86049.00
2022-11-29T09:34:22.842Z,86054.00
2022-11-29T09:36:51.753Z,86061.60
2022-11-29T09:39:20.999Z,86073.80
2022-11-29T09:42:16.236Z,86065.40
2022-11-29T09:44:57.591Z,86067.20
2022-11-29T09:47:54.807Z,86064.40
2022-11-29T09:50:49.775Z,86064.60
2022-11-29T09:53:30.864Z,86069.20
2022-11-29T09:56:32.642Z,86064.60
2022-11-29T09:59:13.925Z,86059.00
2022-11-29T10:01:54.420Z,86074.00
2022-11-29T10:04:31.405Z,86075.60
2022-11-29T10:07:18.023Z,86073.00
2022-11-29T10:10:03.175Z,86081.60
2022-11-29T10:13:01.926Z,86084.20
2022-11-29T10:15:41.659Z,86078.20
2022-11-29T10:18:37.500Z,86074.20
2022-11-29T10:21:30.060Z,86082.60
2022-11-29T10:24:12.544Z,86082.60
2022-11-29T10:26:44.574Z,86076.80
2022-11-29T10:29:18.166Z,86081.00
2022-11-29T10:31:50.795Z,86083.60
2022-11-29T10:34:25.144Z,86090.20
2022-11-29T10:37:03.876Z,86093.20
2022-11-29T10:40:14.594Z,86092.00
2022-11-29T10:42:50.377Z,86089.20
2022-11-29T10:45:22.921Z,86084.80
2022-11-29T10:47:56.807Z,86086.00
2022-11-29T10:50:34.818Z,86082.60
2022-11-29T10:53:13.193Z,86080.00
2022-11-29T10:56:17.142Z,86084.00
2022-11-29T10:59:10.493Z,86090.20
2022-11-29T11:01:44.134Z,86087.20
2022-11-29T11:04:48.500Z,86085.00
2022-11-29T11:07:37.492Z,86091.80
2022-11-29T11:10:31.955Z,86096.60
2022-11-29T11:13:21.869Z,86098.20
2022-11-29T11:15:51.324Z,86100.00
2022-11-29T11:18:27.900Z,86105.60
2022-11-29T11:21:05.997Z,86098.80
2022-11-29T11:23:42.752Z,86094.80
2022-11-29T11:26:16.915Z,86100.00
2022-11-29T11:29:01.201Z,86098.00
2022-11-29T11:31:40.973Z,86091.80
2022-11-29T11:34:30.583Z,86098.20
2022-11-29T11:37:18.668Z,86095.20
2022-11-29T11:39:51.936Z,86090.40
2022-11-29T11:42:39.189Z,86093.60
2022-11-29T11:45:13.985Z,86093.00
2022-11-29T11:48:00.403Z,86092.00
2022-11-29T11:50:41.788Z,86099.00
2022-11-29T11:53:26.580Z,86097.60
2022-11-29T11:56:12.419Z,86100.40
2022-11-29T11:58:53.336Z,86102.20
2022-11-29T12:01:41.546Z,86110.80
2022-11-29T12:04:27.293Z,86116.60
2022-11-29T12:07:51.954Z,86123.60
2022-11-29T12:10:26.845Z,86121.20
2022-11-29T12:12:58.716Z,86123.60
2022-11-29T12:15:41.814Z,86124.20
2022-11-29T12:18:32.304Z,86131.40
2022-11-29T12:21:28.904Z,86119.20
2022-11-29T12:24:48.025Z,86122.40
2022-11-29T12:27:17.562Z,86131.80
2022-11-29T12:29:46.854Z,86119.00
2022-11-29T12:32:56.591Z,86114.60
2022-11-29T12:35:54.771Z,86125.80
2022-11-29T12:39:06.823Z,86123.80
2022-11-29T12:42:02.948Z,86149.00
2022-11-29T12:45:02.016Z,86147.00
2022-11-29T12:47:55.057Z,86142.00
2022-11-29T12:50:31.941Z,86141.00
2022-11-29T12:53:23.986Z,86143.60
2022-11-29T12:56:43.126Z,86140.80
2022-11-29T12:59:47.402Z,86141.40
2022-11-29T13:02:50.907Z,86145.40
2022-11-29T13:05:57.651Z,86146.80
2022-11-29T13:08:50.784Z,86138.60
2022-11-29T13:11:31.896Z,86146.80
2022-11-29T13:14:41.097Z,86142.20
2022-11-29T13:17:12.889Z,86144.20
2022-11-29T13:19:57.328Z,86140.00
2022-11-29T13:22:52.214Z,86140.60
2022-11-29T13:25:30.626Z,86137.20
2022-11-29T13:28:12.313Z,86147.00
2022-11-29T13:30:42.303Z,86147.60
2022-11-29T13:33:32.647Z,86150.40
2022-11-29T13:36:34.789Z,86149.80
2022-11-29T13:39:38.336Z,86150.00
2022-11-29T13:42:25.285Z,86145.60
2022-11-29T13:45:25.549Z,86140.60
2022-11-29T13:48:01.259Z,86144.00
2022-11-29T13:50:43.527Z,86142.80
2022-11-29T13:53:25.589Z,86152.60
2022-11-29T13:56:02.837Z,86153.00
2022-11-29T13:58:40.571Z,86162.20
2022-11-29T14:01:15.571Z,86162.60
2022-11-29T14:04:03.113Z,86159.00
2022-11-29T14:06:42.445Z,86162.80
2022-11-29T14:09:48.897Z,86165.00
2022-11-29T14:12:37.867Z,86163.40
2022-11-29T14:15:32.696Z,86157.60
2022-11-29T14:18:10.547Z,86165.60
2022-11-29T14:20:45.128Z,86162.60
2022-11-29T14:23:41.686Z,86165.20
2022-11-29T14:26:10.915Z,86158.20
2022-11-29T14:28:43.074Z,86164.20
2022-11-29T14:31:12.556Z,86160.40
2022-11-29T14:34:17.916Z,86158.60
2022-11-29T14:37:08.323Z,86156.80
2022-11-29T14:39:50.530Z,86168.40
2022-11-29T14:42:26.728Z,86163.40
2022-11-29T14:45:05.661Z,86163.00
2022-11-29T14:47:51.119Z,86168.00
2022-11-29T14:50:39.962Z,86167.00
2022-11-29T14:53:31.696Z,86173.80
2022-11-29T14:56:31.879Z,86182.60
2022-11-29T14:59:49.590Z,86180.60
2022-11-29T15:02:57.786Z,86179.20
2022-11-29T15:05:49.139Z,86171.20
2022-11-29T15:09:22.202Z,86174.00
2022-11-29T15:12:03.354Z,86188.60
2022-11-29T15:15:02.966Z,86191.00
2022-11-29T15:17:57.329Z,86190.00
2022-11-29T15:20:46.772Z,86192.60
2022-11-29T15:23:21.310Z,86195.80
2022-11-29T15:25:55.473Z,86187.60
2022-11-29T15:28:30.261Z,86191.80
2022-11-29T15:31:11.188Z,86193.60
2022-11-29T15:33:47.518Z,86195.80
2022-11-29T15:36:23.994Z,86189.00
2022-11-29T15:38:56.937Z,86193.40
2022-11-29T15:41:36.585Z,86190.40
2022-11-29T15:44:08.772Z,86196.20
2022-11-29T15:46:38.253Z,86197.40
2022-11-29T15:49:33.201Z,86203.60
2022-11-29T15:52:14.439Z,86195.60
2022-11-29T15:54:56.797Z,86195.40
2022-11-29T15:57:43.918Z,86198.80
2022-11-29T16:00:24.264Z,86197.00
2022-11-29T16:03:05.788Z,86196.80
2022-11-29T16:05:39.276Z,86201.00
2022-11-29T16:08:22.395Z,86203.00
2022-11-29T16:10:54.403Z,86195.60
2022-11-29T16:13:44.246Z,86206.60
2022-11-29T16:16:22.869Z,86204.40
2022-11-29T16:18:53.090Z,86215.60
2022-11-29T16:21:28.830Z,86214.40
2022-11-29T16:23:59.735Z,86207.00
2022-11-29T16:26:39.549Z,86210.40
2022-11-29T16:29:22.441Z,86212.00
2022-11-29T16:31:52.306Z,86215.40
2022-11-29T16:34:27.480Z,86220.60
2022-11-29T16:37:20.637Z,86216.20
2022-11-29T16:39:54.437Z,86206.40
2022-11-29T16:42:29.300Z,86212.00
2022-11-29T16:45:24.750Z,86209.80
2022-11-29T16:48:01.675Z,86207.40
2022-11-29T16:50:35.941Z,86202.00
2022-11-29T16:53:41.259Z,86204.40
2022-11-29T16:56:18.555Z,86207.20
2022-11-29T16:59:25.666Z,86203.80
2022-11-29T17:01:47.286Z,86196.60
2022-11-29T17:04:24.418Z,86188.80
2022-11-29T17:06:58.796Z,86185.20
2022-11-29T17:09:35.665Z,86178.80
2022-11-29T17:12:05.040Z,86180.60
2022-11-29T17:14:34.441Z,86181.40
2022-11-29T17:17:03.489Z,86177.00
2022-11-29T17:19:33.307Z,86177.40
2022-11-29T17:22:02.759Z,86177.60
2022-11-29T17:24:32.055Z,86177.00
2022-11-29T17:27:01.147Z,86174.60
2022-11-29T17:29:30.457Z,86170.00
2022-11-29T17:31:59.924Z,86171.80
2022-11-29T17:34:28.861Z,86175.60
2022-11-29T17:36:58.458Z,86172.60
2022-11-29T17:39:27.720Z,86172.80
2022-11-29T17:41:56.786Z,86166.60
2022-11-29T17:44:25.875Z,86172.80
2022-11-29T17:46:55.000Z,86159.20
2022-11-29T17:49:24.137Z,86158.00
2022-11-29T17:51:53.774Z,86156.40
2022-11-29T17:54:26.148Z,86156.20
2022-11-29T17:56:56.473Z,86157.20
2022-11-29T17:59:25.775Z,86151.20
2022-11-29T18:01:57.378Z,86156.40
2022-11-29T18:04:26.671Z,86152.80
2022-11-29T18:06:55.781Z,86150.00
2022-11-29T18:09:24.863Z,86136.00
2022-11-29T18:11:54.045Z,86138.20
2022-11-29T18:14:25.096Z,86146.60
2022-11-29T18:16:54.389Z,86134.20
2022-11-29T18:19:25.065Z,86135.60
2022-11-29T18:21:54.305Z,86134.40
2022-11-29T18:24:23.440Z,86123.60
2022-11-29T18:26:52.801Z,86132.00
2022-11-29T18:29:22.506Z,86126.80
2022-11-29T18:31:51.849Z,86125.20
2022-11-29T18:34:20.997Z,86124.60
2022-11-29T18:36:50.886Z,86120.00
2022-11-29T18:39:24.412Z,86115.00
2022-11-29T18:41:53.781Z,86114.80
2022-11-29T18:44:30.320Z,86109.20
2022-11-29T18:46:59.794Z,86108.80
2022-11-29T18:49:28.840Z,86110.80
2022-11-29T18:51:58.242Z,86107.60
2022-11-29T18:54:27.436Z,86108.60
2022-11-29T18:56:56.654Z,86101.00
2022-11-29T18:59:26.023Z,86095.40
2022-11-29T19:01:54.984Z,86090.80
2022-11-29T19:04:24.507Z,86091.80
2022-11-29T19:06:53.805Z,86087.60
2022-11-29T19:09:25.536Z,86088.20
2022-11-29T19:11:54.858Z,86082.20
2022-11-29T19:14:23.874Z,86077.40
2022-11-29T19:16:53.050Z,86070.60
2022-11-29T19:19:22.132Z,86068.80
2022-11-29T19:21:51.304Z,86068.20
2022-11-29T19:24:21.042Z,86064.60
2022-11-29T19:26:50.902Z,86063.60
2022-11-29T19:29:19.891Z,86062.80
2022-11-29T19:31:49.113Z,86067.60
2022-11-29T19:34:18.346Z,86064.80
2022-11-29T19:36:47.503Z,86064.00
2022-11-29T19:39:18.619Z,86063.20
2022-11-29T19:41:49.562Z,86055.00
2022-11-29T19:44:18.627Z,86049.20
2022-11-29T19:46:50.101Z,86055.40
2022-11-29T19:49:19.149Z,86048.80
2022-11-29T19:51:48.495Z,86045.60
2022-11-29T19:54:17.800Z,86040.80
2022-11-29T19:56:47.017Z,86043.20
2022-11-29T19:59:16.354Z,86039.40
2022-11-29T20:01:45.501Z,86037.80
2022-11-29T20:04:17.857Z,86027.20
2022-11-29T20:06:47.542Z,86020.00
2022-11-29T20:09:19.624Z,86023.00
2022-11-29T20:11:48.819Z,86020.80
2022-11-29T20:14:18.177Z,86016.40
2022-11-29T20:16:47.493Z,86016.80
2022-11-29T20:19:19.001Z,86014.00
2022-11-29T20:21:51.273Z,86014.00
2022-11-29T20:24:21.168Z,86009.20
2022-11-29T20:26:51.407Z,86004.80
2022-11-29T20:29:21.035Z,86003.40
2022-11-29T20:31:51.343Z,86003.80
2022-11-29T20:34:22.054Z,85999.00
2022-11-29T20:37:09.486Z,86003.60
2022-11-29T20:40:10.804Z,86001.60
2022-11-29T20:42:55.281Z,85995.20
2022-11-29T20:45:25.798Z,86002.00
2022-11-29T20:48:21.710Z,86004.20
2022-11-29T20:51:03.964Z,86003.80
2022-11-29T20:53:39.663Z,86012.60
2022-11-29T20:56:11.070Z,86006.00
2022-11-29T20:58:43.387Z,85999.60
2022-11-29T21:01:12.646Z,86003.60
2022-11-29T21:03:42.235Z,85998.40
2022-11-29T21:06:11.533Z,85997.00
2022-11-29T21:08:40.717Z,85998.60
2022-11-29T21:11:12.011Z,85993.20
2022-11-29T21:13:41.771Z,85991.60
2022-11-29T21:16:13.966Z,85989.80
2022-11-29T21:18:43.597Z,85990.20
2022-11-29T21:21:26.825Z,85988.80
2022-11-29T21:24:55.132Z,85988.20
2022-11-29T21:27:34.009Z,85979.40
2022-11-29T21:30:07.240Z,85972.40
2022-11-29T21:32:37.182Z,85973.20
2022-11-29T21:35:06.490Z,85966.40
2022-11-29T21:37:35.464Z,85964.60
2022-11-29T21:40:05.450Z,85964.40
2022-11-29T21:42:34.549Z,85971.80
2022-11-29T21:45:06.507Z,85965.40
2022-11-29T21:47:38.270Z,85959.40
2022-11-29T21:50:08.385Z,85955.00
2022-11-29T21:52:37.517Z,85943.00
2022-11-29T21:55:07.624Z,85950.20
2022-11-29T21:57:36.976Z,85939.00
2022-11-29T22:00:07.625Z,85944.20
2022-11-29T22:02:36.861Z,85941.80
2022-11-29T22:05:06.308Z,85939.20
2022-11-29T22:07:35.694Z,85937.00
2022-11-29T22:10:12.941Z,85933.00
2022-11-29T22:12:51.248Z,85930.40
2022-11-29T22:15:24.844Z,85930.60
2022-11-29T22:17:54.713Z,85929.40
2022-11-29T22:20:24.121Z,85930.60
2022-11-29T22:22:58.452Z,85926.60
2022-11-29T22:25:27.969Z,85920.40
2022-11-29T22:27:57.108Z,85921.60
2022-11-29T22:30:26.299Z,85925.80
2022-11-29T22:32:58.502Z,85922.80
2022-11-29T22:35:27.686Z,85925.80
2022-11-29T22:37:57.405Z,85926.80
2022-11-29T22:40:26.596Z,85926.20
2022-11-29T22:42:55.830Z,85919.80
2022-11-29T22:45:24.945Z,85920.80
2022-11-29T22:47:54.082Z,85923.60
2022-11-29T22:50:23.235Z,85921.20
2022-11-29T22:52:54.511Z,85924.20
2022-11-29T22:55:23.519Z,85924.00
2022-11-29T22:57:55.714Z,85925.20
2022-11-29T23:00:25.079Z,85927.40
2022-11-29T23:02:59.015Z,85930.00
2022-11-29T23:05:32.284Z,85929.20
2022-11-29T23:08:02.049Z,85931.40
2022-11-29T23:10:31.341Z,85931.60
2022-11-29T23:13:00.523Z,85927.40
2022-11-29T23:15:29.540Z,85936.00
2022-11-29T23:17:58.734Z,85938.20
2022-11-29T23:20:27.714Z,85938.40
2022-11-29T23:22:57.029Z,85932.80
2022-11-29T23:25:26.201Z,85937.40
2022-11-29T23:27:57.398Z,85939.20
2022-11-29T23:30:26.663Z,85939.20
2022-11-29T23:32:55.687Z,85940.20
2022-11-29T23:35:24.925Z,85940.00
2022-11-29T23:37:53.983Z,85939.80
2022-11-29T23:40:23.118Z,85947.20
2022-11-29T23:42:55.298Z,85946.80
2022-11-29T23:45:24.347Z,85944.60
2022-11-29T23:47:53.705Z,85939.60
2022-11-29T23:50:23.070Z,85938.60
2022-11-29T23:52:58.444Z,85938.40
2022-11-29T23:55:28.382Z,85938.20
2022-11-29T23:57:57.663Z,85937.60
